sensor_id;sensor_type;location;lat;lon;timestamp;temperature;humidity
20479;DHT22;10398;52.490;13.434;2023-01-29T00:01:34;2.10;99.90
20479;DHT22;10398;52.490;13.434;2023-01-29T00:04:00;2.10;99.90
20479;DHT22;10398;52.490;13.434;2023-01-29T00:06:25;2.10;99.90
20479;DHT22;10398;52.490;13.434;2023-01-29T00:08:51;2.10;99.90
20479;DHT22;10398;52.490;13.434;2023-01-29T00:11:17;2.00;99.90
20479;DHT22;10398;52.490;13.434;2023-01-29T00:13:42;2.00;99.90
20479;DHT22;10398;52.490;13.434;2023-01-29T00:16:08;2.10;99.90
20479;DHT22;10398;52.490;13.434;2023-01-29T00:18:38;2.10;99.90
20479;DHT22;10398;52.490;13.434;2023-01-29T00:21:12;2.00;99.90
20479;DHT22;10398;52.490;13.434;2023-01-29T00:23:38;2.00;99.90
20479;DHT22;10398;52.490;13.434;2023-01-29T00:26:04;2.00;99.90
20479;DHT22;10398;52.490;13.434;2023-01-29T00:28:30;2.10;99.90
20479;DHT22;10398;52.490;13.434;2023-01-29T00:30:55;2.10;99.90
20479;DHT22;10398;52.490;13.434;2023-01-29T00:33:21;2.00;99.90
20479;DHT22;10398;52.490;13.434;2023-01-29T00:35:47;2.00;99.90
20479;DHT22;10398;52.490;13.434;2023-01-29T00:38:13;2.10;99.90
20479;DHT22;10398;52.490;13.434;2023-01-29T00:40:39;2.00;99.90
20479;DHT22;10398;52.490;13.434;2023-01-29T00:43:24;2.10;99.90
20479;DHT22;10398;52.490;13.434;2023-01-29T00:46:19;2.10;99.90
20479;DHT22;10398;52.490;13.434;2023-01-29T00:48:45;2.10;99.90
20479;DHT22;10398;52.490;13.434;2023-01-29T00:51:10;2.10;99.90
20479;DHT22;10398;52.490;13.434;2023-01-29T00:53:36;2.20;99.90
20479;DHT22;10398;52.490;13.434;2023-01-29T00:56:01;2.10;99.90
20479;DHT22;10398;52.490;13.434;2023-01-29T00:58:27;2.10;99.90
20479;DHT22;10398;52.490;13.434;2023-01-29T01:01:01;2.10;99.90
20479;DHT22;10398;52.490;13.434;2023-01-29T01:03:28;2.10;99.90
20479;DHT22;10398;52.490;13.434;2023-01-29T01:06:04;2.10;99.90
20479;DHT22;10398;52.490;13.434;2023-01-29T01:08:30;2.10;99.90
20479;DHT22;10398;52.490;13.434;2023-01-29T01:11:15;2.20;99.90
20479;DHT22;10398;52.490;13.434;2023-01-29T01:13:41;2.20;99.90
20479;DHT22;10398;52.490;13.434;2023-01-29T01:16:11;2.20;99.90
20479;DHT22;10398;52.490;13.434;2023-01-29T01:18:37;2.20;99.90
20479;DHT22;10398;52.490;13.434;2023-01-29T01:21:03;2.20;99.90
20479;DHT22;10398;52.490;13.434;2023-01-29T01:23:29;2.20;99.90
20479;DHT22;10398;52.490;13.434;2023-01-29T01:25:55;2.20;99.90
20479;DHT22;10398;52.490;13.434;2023-01-29T01:28:20;2.20;99.90
20479;DHT22;10398;52.490;13.434;2023-01-29T01:30:46;2.20;99.90
20479;DHT22;10398;52.490;13.434;2023-01-29T01:33:12;2.30;99.90
20479;DHT22;10398;52.490;13.434;2023-01-29T01:35:38;2.20;99.90
20479;DHT22;10398;52.490;13.434;2023-01-29T01:38:04;2.30;99.90
20479;DHT22;10398;52.490;13.434;2023-01-29T01:40:29;2.30;99.90
20479;DHT22;10398;52.490;13.434;2023-01-29T01:42:58;2.30;99.90
20479;DHT22;10398;52.490;13.434;2023-01-29T01:45:30;2.30;99.90
20479;DHT22;10398;52.490;13.434;2023-01-29T01:48:10;2.40;99.90
20479;DHT22;10398;52.490;13.434;2023-01-29T01:50:50;2.40;99.90
20479;DHT22;10398;52.490;13.434;2023-01-29T01:53:21;2.20;99.90
20479;DHT22;10398;52.490;13.434;2023-01-29T01:55:55;2.40;99.90
20479;DHT22;10398;52.490;13.434;2023-01-29T01:58:32;2.40;99.90
20479;DHT22;10398;52.490;13.434;2023-01-29T02:00:59;2.50;99.90
20479;DHT22;10398;52.490;13.434;2023-01-29T02:03:26;2.60;99.90
20479;DHT22;10398;52.490;13.434;2023-01-29T02:06:11;2.50;99.90
20479;DHT22;10398;52.490;13.434;2023-01-29T02:09:02;2.50;99.90
20479;DHT22;10398;52.490;13.434;2023-01-29T02:11:48;2.50;99.90
20479;DHT22;10398;52.490;13.434;2023-01-29T02:14:15;2.50;99.90
20479;DHT22;10398;52.490;13.434;2023-01-29T02:16:40;2.50;99.90
20479;DHT22;10398;52.490;13.434;2023-01-29T02:19:17;2.40;99.90
20479;DHT22;10398;52.490;13.434;2023-01-29T02:27:32;2.50;99.90
20479;DHT22;10398;52.490;13.434;2023-01-29T02:30:08;2.50;99.90
20479;DHT22;10398;52.490;13.434;2023-01-29T02:33:00;2.50;99.90
20479;DHT22;10398;52.490;13.434;2023-01-29T02:35:41;2.40;99.90
20479;DHT22;10398;52.490;13.434;2023-01-29T02:41:01;2.30;99.90
20479;DHT22;10398;52.490;13.434;2023-01-29T02:43:58;2.30;99.90
20479;DHT22;10398;52.490;13.434;2023-01-29T02:47:03;2.30;99.90
20479;DHT22;10398;52.490;13.434;2023-01-29T02:50:15;2.30;99.90
20479;DHT22;10398;52.490;13.434;2023-01-29T02:53:00;2.30;99.90
20479;DHT22;10398;52.490;13.434;2023-01-29T02:55:43;2.30;99.90
20479;DHT22;10398;52.490;13.434;2023-01-29T02:58:18;2.40;99.90
20479;DHT22;10398;52.490;13.434;2023-01-29T03:00:46;2.40;99.90
20479;DHT22;10398;52.490;13.434;2023-01-29T03:03:22;2.30;99.90
20479;DHT22;10398;52.490;13.434;2023-01-29T03:05:57;2.40;99.90
20479;DHT22;10398;52.490;13.434;2023-01-29T03:08:45;2.40;99.90
20479;DHT22;10398;52.490;13.434;2023-01-29T03:11:15;2.40;99.90
20479;DHT22;10398;52.490;13.434;2023-01-29T03:13:49;2.40;99.90
20479;DHT22;10398;52.490;13.434;2023-01-29T03:16:21;2.40;99.90
20479;DHT22;10398;52.490;13.434;2023-01-29T03:18:57;2.40;99.90
20479;DHT22;10398;52.490;13.434;2023-01-29T03:21:38;2.40;99.90
20479;DHT22;10398;52.490;13.434;2023-01-29T03:24:51;2.40;99.90
20479;DHT22;10398;52.490;13.434;2023-01-29T03:27:43;2.40;99.90
20479;DHT22;10398;52.490;13.434;2023-01-29T03:30:32;2.50;99.90
20479;DHT22;10398;52.490;13.434;2023-01-29T03:33:20;2.60;99.90
20479;DHT22;10398;52.490;13.434;2023-01-29T03:36:09;2.60;99.90
20479;DHT22;10398;52.490;13.434;2023-01-29T03:38:37;2.60;99.90
20479;DHT22;10398;52.490;13.434;2023-01-29T03:41:09;2.50;99.90
20479;DHT22;10398;52.490;13.434;2023-01-29T03:43:52;2.40;99.90
20479;DHT22;10398;52.490;13.434;2023-01-29T03:47:03;2.40;99.90
20479;DHT22;10398;52.490;13.434;2023-01-29T03:57:57;2.40;99.90
20479;DHT22;10398;52.490;13.434;2023-01-29T04:00:33;2.40;99.90
20479;DHT22;10398;52.490;13.434;2023-01-29T04:05:52;2.50;99.90
20479;DHT22;10398;52.490;13.434;2023-01-29T04:11:36;2.40;99.90
20479;DHT22;10398;52.490;13.434;2023-01-29T04:14:03;2.50;99.90
20479;DHT22;10398;52.490;13.434;2023-01-29T04:16:38;2.50;99.90
20479;DHT22;10398;52.490;13.434;2023-01-29T04:19:05;2.40;99.90
20479;DHT22;10398;52.490;13.434;2023-01-29T04:21:33;2.40;99.90
20479;DHT22;10398;52.490;13.434;2023-01-29T04:24:02;2.30;99.90
20479;DHT22;10398;52.490;13.434;2023-01-29T04:29:39;2.30;99.90
20479;DHT22;10398;52.490;13.434;2023-01-29T04:32:31;2.30;99.90
20479;DHT22;10398;52.490;13.434;2023-01-29T04:35:22;2.40;99.90
20479;DHT22;10398;52.490;13.434;2023-01-29T04:38:00;2.30;99.90
20479;DHT22;10398;52.490;13.434;2023-01-29T04:43:44;2.30;99.90
20479;DHT22;10398;52.490;13.434;2023-01-29T04:46:24;2.30;99.90
20479;DHT22;10398;52.490;13.434;2023-01-29T04:59:30;2.30;99.90
20479;DHT22;10398;52.490;13.434;2023-01-29T05:01:59;2.30;99.90
20479;DHT22;10398;52.490;13.434;2023-01-29T05:04:26;2.20;99.90
20479;DHT22;10398;52.490;13.434;2023-01-29T05:07:00;2.30;99.90
20479;DHT22;10398;52.490;13.434;2023-01-29T05:09:31;2.40;99.90
20479;DHT22;10398;52.490;13.434;2023-01-29T05:11:58;2.30;99.90
20479;DHT22;10398;52.490;13.434;2023-01-29T05:14:27;2.40;99.90
20479;DHT22;10398;52.490;13.434;2023-01-29T05:16:56;2.40;99.90
20479;DHT22;10398;52.490;13.434;2023-01-29T05:19:23;2.40;99.90
20479;DHT22;10398;52.490;13.434;2023-01-29T05:21:49;2.30;99.90
20479;DHT22;10398;52.490;13.434;2023-01-29T05:24:23;2.30;99.90
20479;DHT22;10398;52.490;13.434;2023-01-29T05:26:51;2.30;99.90
20479;DHT22;10398;52.490;13.434;2023-01-29T05:29:35;2.40;99.90
20479;DHT22;10398;52.490;13.434;2023-01-29T05:32:01;2.30;99.90
20479;DHT22;10398;52.490;13.434;2023-01-29T05:34:28;2.40;99.90
20479;DHT22;10398;52.490;13.434;2023-01-29T05:36:54;2.40;99.90
20479;DHT22;10398;52.490;13.434;2023-01-29T05:39:20;2.40;99.90
20479;DHT22;10398;52.490;13.434;2023-01-29T05:41:45;2.30;99.90
20479;DHT22;10398;52.490;13.434;2023-01-29T05:44:11;2.30;99.90
20479;DHT22;10398;52.490;13.434;2023-01-29T05:46:37;2.30;99.90
20479;DHT22;10398;52.490;13.434;2023-01-29T05:49:03;2.30;99.90
20479;DHT22;10398;52.490;13.434;2023-01-29T05:51:29;2.30;99.90
20479;DHT22;10398;52.490;13.434;2023-01-29T05:53:54;2.30;99.90
20479;DHT22;10398;52.490;13.434;2023-01-29T05:56:20;2.40;99.90
20479;DHT22;10398;52.490;13.434;2023-01-29T05:58:46;2.40;99.90
20479;DHT22;10398;52.490;13.434;2023-01-29T06:01:15;2.40;99.90
20479;DHT22;10398;52.490;13.434;2023-01-29T06:03:42;2.40;99.90
20479;DHT22;10398;52.490;13.434;2023-01-29T06:06:08;2.40;99.90
20479;DHT22;10398;52.490;13.434;2023-01-29T06:08:34;2.40;99.90
20479;DHT22;10398;52.490;13.434;2023-01-29T06:11:00;2.50;99.90
20479;DHT22;10398;52.490;13.434;2023-01-29T06:13:25;2.50;99.90
20479;DHT22;10398;52.490;13.434;2023-01-29T06:15:51;2.50;99.90
20479;DHT22;10398;52.490;13.434;2023-01-29T06:18:17;2.50;99.90
20479;DHT22;10398;52.490;13.434;2023-01-29T06:20:42;2.60;99.90
20479;DHT22;10398;52.490;13.434;2023-01-29T06:23:08;2.60;99.90
20479;DHT22;10398;52.490;13.434;2023-01-29T06:25:34;2.60;99.90
20479;DHT22;10398;52.490;13.434;2023-01-29T06:27:59;2.60;99.90
20479;DHT22;10398;52.490;13.434;2023-01-29T06:30:25;2.60;99.90
20479;DHT22;10398;52.490;13.434;2023-01-29T06:32:56;2.60;99.90
20479;DHT22;10398;52.490;13.434;2023-01-29T06:35:26;2.60;99.90
20479;DHT22;10398;52.490;13.434;2023-01-29T06:37:52;2.70;99.90
20479;DHT22;10398;52.490;13.434;2023-01-29T06:40:18;2.70;99.90
20479;DHT22;10398;52.490;13.434;2023-01-29T06:42:44;2.80;99.90
20479;DHT22;10398;52.490;13.434;2023-01-29T06:45:10;2.80;99.90
20479;DHT22;10398;52.490;13.434;2023-01-29T06:47:36;2.80;99.90
20479;DHT22;10398;52.490;13.434;2023-01-29T06:50:02;2.80;99.90
20479;DHT22;10398;52.490;13.434;2023-01-29T06:52:28;2.80;99.90
20479;DHT22;10398;52.490;13.434;2023-01-29T06:54:54;2.70;99.90
20479;DHT22;10398;52.490;13.434;2023-01-29T06:57:20;2.70;99.90
20479;DHT22;10398;52.490;13.434;2023-01-29T06:59:46;2.80;99.90
20479;DHT22;10398;52.490;13.434;2023-01-29T07:02:12;2.80;99.90
20479;DHT22;10398;52.490;13.434;2023-01-29T07:04:38;2.70;99.90
20479;DHT22;10398;52.490;13.434;2023-01-29T07:07:05;2.70;99.90
20479;DHT22;10398;52.490;13.434;2023-01-29T07:09:37;2.70;99.90
20479;DHT22;10398;52.490;13.434;2023-01-29T07:12:03;2.70;99.90
20479;DHT22;10398;52.490;13.434;2023-01-29T07:14:29;2.80;99.90
20479;DHT22;10398;52.490;13.434;2023-01-29T07:16:54;2.80;99.90
20479;DHT22;10398;52.490;13.434;2023-01-29T07:19:20;2.80;99.90
20479;DHT22;10398;52.490;13.434;2023-01-29T07:21:46;2.90;99.90
20479;DHT22;10398;52.490;13.434;2023-01-29T07:24:11;2.90;99.90
20479;DHT22;10398;52.490;13.434;2023-01-29T07:26:37;2.90;99.90
20479;DHT22;10398;52.490;13.434;2023-01-29T07:29:04;2.90;99.90
20479;DHT22;10398;52.490;13.434;2023-01-29T07:31:29;2.80;99.90
20479;DHT22;10398;52.490;13.434;2023-01-29T07:33:55;2.80;99.90
20479;DHT22;10398;52.490;13.434;2023-01-29T07:36:20;2.80;99.90
20479;DHT22;10398;52.490;13.434;2023-01-29T07:38:49;2.70;99.90
20479;DHT22;10398;52.490;13.434;2023-01-29T07:41:15;2.70;99.90
20479;DHT22;10398;52.490;13.434;2023-01-29T07:43:41;2.70;99.90
20479;DHT22;10398;52.490;13.434;2023-01-29T07:46:06;2.70;99.90
20479;DHT22;10398;52.490;13.434;2023-01-29T07:48:32;2.70;99.90
20479;DHT22;10398;52.490;13.434;2023-01-29T07:50:58;2.70;99.90
20479;DHT22;10398;52.490;13.434;2023-01-29T07:53:25;2.70;99.90
20479;DHT22;10398;52.490;13.434;2023-01-29T07:55:51;2.70;99.90
20479;DHT22;10398;52.490;13.434;2023-01-29T07:58:16;2.70;99.90
20479;DHT22;10398;52.490;13.434;2023-01-29T08:00:42;2.70;99.90
20479;DHT22;10398;52.490;13.434;2023-01-29T08:03:13;2.70;99.90
20479;DHT22;10398;52.490;13.434;2023-01-29T08:05:40;2.80;99.90
20479;DHT22;10398;52.490;13.434;2023-01-29T08:08:06;2.70;99.90
20479;DHT22;10398;52.490;13.434;2023-01-29T08:10:32;2.70;99.90
20479;DHT22;10398;52.490;13.434;2023-01-29T08:13:00;2.80;99.90
20479;DHT22;10398;52.490;13.434;2023-01-29T08:15:27;2.70;99.90
20479;DHT22;10398;52.490;13.434;2023-01-29T08:17:53;2.70;99.90
20479;DHT22;10398;52.490;13.434;2023-01-29T08:20:20;2.70;99.90
20479;DHT22;10398;52.490;13.434;2023-01-29T08:22:45;2.80;99.90
20479;DHT22;10398;52.490;13.434;2023-01-29T08:25:12;2.80;99.90
20479;DHT22;10398;52.490;13.434;2023-01-29T08:27:38;2.80;99.90
20479;DHT22;10398;52.490;13.434;2023-01-29T08:30:04;2.90;99.90
20479;DHT22;10398;52.490;13.434;2023-01-29T08:32:31;2.90;99.90
20479;DHT22;10398;52.490;13.434;2023-01-29T08:34:56;2.90;99.90
20479;DHT22;10398;52.490;13.434;2023-01-29T08:37:22;2.90;99.90
20479;DHT22;10398;52.490;13.434;2023-01-29T08:39:48;2.90;99.90
20479;DHT22;10398;52.490;13.434;2023-01-29T08:42:13;2.90;99.90
20479;DHT22;10398;52.490;13.434;2023-01-29T08:44:39;2.90;99.90
20479;DHT22;10398;52.490;13.434;2023-01-29T08:47:04;2.90;99.90
20479;DHT22;10398;52.490;13.434;2023-01-29T08:49:30;2.90;99.90
20479;DHT22;10398;52.490;13.434;2023-01-29T08:51:56;3.00;99.90
20479;DHT22;10398;52.490;13.434;2023-01-29T08:54:22;3.00;99.90
20479;DHT22;10398;52.490;13.434;2023-01-29T08:56:48;3.00;99.90
20479;DHT22;10398;52.490;13.434;2023-01-29T08:59:14;3.00;99.90
20479;DHT22;10398;52.490;13.434;2023-01-29T09:01:40;2.90;99.90
20479;DHT22;10398;52.490;13.434;2023-01-29T09:04:06;3.00;99.90
20479;DHT22;10398;52.490;13.434;2023-01-29T09:06:31;3.00;99.90
20479;DHT22;10398;52.490;13.434;2023-01-29T09:08:57;3.00;99.90
20479;DHT22;10398;52.490;13.434;2023-01-29T09:11:23;3.00;99.90
20479;DHT22;10398;52.490;13.434;2023-01-29T09:13:48;2.90;99.90
20479;DHT22;10398;52.490;13.434;2023-01-29T09:16:14;3.00;99.90
20479;DHT22;10398;52.490;13.434;2023-01-29T09:18:40;3.00;99.90
20479;DHT22;10398;52.490;13.434;2023-01-29T09:21:05;3.00;99.90
20479;DHT22;10398;52.490;13.434;2023-01-29T09:23:31;3.10;99.90
20479;DHT22;10398;52.490;13.434;2023-01-29T09:25:57;3.10;99.90
20479;DHT22;10398;52.490;13.434;2023-01-29T09:28:23;3.10;99.90
20479;DHT22;10398;52.490;13.434;2023-01-29T09:30:51;3.10;99.90
20479;DHT22;10398;52.490;13.434;2023-01-29T09:33:20;3.10;99.90
20479;DHT22;10398;52.490;13.434;2023-01-29T09:35:46;3.10;99.90
20479;DHT22;10398;52.490;13.434;2023-01-29T09:38:12;3.10;99.90
20479;DHT22;10398;52.490;13.434;2023-01-29T09:41:25;3.10;99.90
20479;DHT22;10398;52.490;13.434;2023-01-29T09:46:20;3.20;99.90
20479;DHT22;10398;52.490;13.434;2023-01-29T09:48:50;3.30;99.90
20479;DHT22;10398;52.490;13.434;2023-01-29T09:51:44;3.30;99.90
20479;DHT22;10398;52.490;13.434;2023-01-29T09:54:22;3.30;99.90
20479;DHT22;10398;52.490;13.434;2023-01-29T09:56:51;3.40;99.90
20479;DHT22;10398;52.490;13.434;2023-01-29T09:59:21;3.40;99.90
20479;DHT22;10398;52.490;13.434;2023-01-29T10:04:57;3.50;99.90
20479;DHT22;10398;52.490;13.434;2023-01-29T10:13:14;3.50;99.90
20479;DHT22;10398;52.490;13.434;2023-01-29T10:16:12;3.60;99.90
20479;DHT22;10398;52.490;13.434;2023-01-29T10:26:47;3.90;99.90
20479;DHT22;10398;52.490;13.434;2023-01-29T10:29:17;3.90;99.90
20479;DHT22;10398;52.490;13.434;2023-01-29T10:31:43;4.00;99.90
20479;DHT22;10398;52.490;13.434;2023-01-29T10:34:32;4.00;99.90
20479;DHT22;10398;52.490;13.434;2023-01-29T10:37:00;4.10;99.90
20479;DHT22;10398;52.490;13.434;2023-01-29T10:39:31;4.20;99.90
20479;DHT22;10398;52.490;13.434;2023-01-29T10:53:18;4.30;99.90
20479;DHT22;10398;52.490;13.434;2023-01-29T10:58:51;4.20;99.90
20479;DHT22;10398;52.490;13.434;2023-01-29T11:01:19;4.30;99.90
20479;DHT22;10398;52.490;13.434;2023-01-29T11:03:44;4.40;99.90
20479;DHT22;10398;52.490;13.434;2023-01-29T11:06:32;4.40;99.90
20479;DHT22;10398;52.490;13.434;2023-01-29T11:11:48;4.50;99.90
20479;DHT22;10398;52.490;13.434;2023-01-29T11:14:24;4.60;99.90
20479;DHT22;10398;52.490;13.434;2023-01-29T11:16:51;4.60;99.90
20479;DHT22;10398;52.490;13.434;2023-01-29T11:19:17;4.60;99.90
20479;DHT22;10398;52.490;13.434;2023-01-29T11:21:59;4.60;99.90
20479;DHT22;10398;52.490;13.434;2023-01-29T11:24:26;4.60;99.90
20479;DHT22;10398;52.490;13.434;2023-01-29T11:26:54;4.60;99.90
20479;DHT22;10398;52.490;13.434;2023-01-29T11:32:23;4.60;99.90
20479;DHT22;10398;52.490;13.434;2023-01-29T11:35:19;4.50;99.90
20479;DHT22;10398;52.490;13.434;2023-01-29T11:37:46;4.60;99.90
20479;DHT22;10398;52.490;13.434;2023-01-29T11:42:46;4.60;99.90
20479;DHT22;10398;52.490;13.434;2023-01-29T11:45:27;4.60;99.90
20479;DHT22;10398;52.490;13.434;2023-01-29T11:47:59;4.60;99.90
20479;DHT22;10398;52.490;13.434;2023-01-29T11:50:33;4.60;99.90
20479;DHT22;10398;52.490;13.434;2023-01-29T11:52:59;4.60;99.90
20479;DHT22;10398;52.490;13.434;2023-01-29T11:55:35;4.60;99.90
20479;DHT22;10398;52.490;13.434;2023-01-29T12:00:47;4.60;99.90
20479;DHT22;10398;52.490;13.434;2023-01-29T12:05:58;4.70;99.90
20479;DHT22;10398;52.490;13.434;2023-01-29T12:08:29;4.80;99.90
20479;DHT22;10398;52.490;13.434;2023-01-29T12:11:23;4.80;99.90
20479;DHT22;10398;52.490;13.434;2023-01-29T12:13:53;4.90;99.90
20479;DHT22;10398;52.490;13.434;2023-01-29T12:19:08;5.00;99.90
20479;DHT22;10398;52.490;13.434;2023-01-29T12:22:09;5.00;99.90
20479;DHT22;10398;52.490;13.434;2023-01-29T12:25:02;5.00;99.90
20479;DHT22;10398;52.490;13.434;2023-01-29T12:27:50;4.90;99.90
20479;DHT22;10398;52.490;13.434;2023-01-29T12:30:42;4.90;99.90
20479;DHT22;10398;52.490;13.434;2023-01-29T12:33:11;5.00;99.90
20479;DHT22;10398;52.490;13.434;2023-01-29T12:35:46;4.90;99.90
20479;DHT22;10398;52.490;13.434;2023-01-29T12:38:21;5.00;99.90
20479;DHT22;10398;52.490;13.434;2023-01-29T12:40:56;4.90;99.90
20479;DHT22;10398;52.490;13.434;2023-01-29T12:43:31;5.00;99.90
20479;DHT22;10398;52.490;13.434;2023-01-29T12:46:00;4.90;99.90
20479;DHT22;10398;52.490;13.434;2023-01-29T12:48:32;4.90;99.90
20479;DHT22;10398;52.490;13.434;2023-01-29T12:51:06;5.00;99.90
20479;DHT22;10398;52.490;13.434;2023-01-29T12:53:54;5.00;99.90
20479;DHT22;10398;52.490;13.434;2023-01-29T12:56:39;4.90;99.90
20479;DHT22;10398;52.490;13.434;2023-01-29T12:59:36;5.00;99.90
20479;DHT22;10398;52.490;13.434;2023-01-29T13:07:45;5.00;99.90
20479;DHT22;10398;52.490;13.434;2023-01-29T13:10:19;5.00;99.90
20479;DHT22;10398;52.490;13.434;2023-01-29T13:13:02;5.00;99.90
20479;DHT22;10398;52.490;13.434;2023-01-29T13:15:33;5.10;99.90
20479;DHT22;10398;52.490;13.434;2023-01-29T13:18:41;5.20;99.90
20479;DHT22;10398;52.490;13.434;2023-01-29T13:21:15;5.20;99.90
20479;DHT22;10398;52.490;13.434;2023-01-29T13:23:49;5.10;99.90
20479;DHT22;10398;52.490;13.434;2023-01-29T13:26:19;5.00;99.90
20479;DHT22;10398;52.490;13.434;2023-01-29T13:28:46;5.00;99.90
20479;DHT22;10398;52.490;13.434;2023-01-29T13:31:36;5.00;99.90
20479;DHT22;10398;52.490;13.434;2023-01-29T13:34:13;5.00;99.90
20479;DHT22;10398;52.490;13.434;2023-01-29T13:36:48;5.10;99.90
20479;DHT22;10398;52.490;13.434;2023-01-29T13:39:22;5.10;99.90
20479;DHT22;10398;52.490;13.434;2023-01-29T13:41:50;5.00;99.90
20479;DHT22;10398;52.490;13.434;2023-01-29T13:44:22;5.00;99.90
20479;DHT22;10398;52.490;13.434;2023-01-29T13:46:58;4.90;99.90
20479;DHT22;10398;52.490;13.434;2023-01-29T13:49:32;4.90;99.90
20479;DHT22;10398;52.490;13.434;2023-01-29T13:52:23;4.90;99.90
20479;DHT22;10398;52.490;13.434;2023-01-29T13:54:57;4.90;99.90
20479;DHT22;10398;52.490;13.434;2023-01-29T13:57:48;4.80;99.90
20479;DHT22;10398;52.490;13.434;2023-01-29T14:10:22;4.70;99.90
20479;DHT22;10398;52.490;13.434;2023-01-29T14:12:53;4.80;99.90
20479;DHT22;10398;52.490;13.434;2023-01-29T14:15:25;4.70;99.90
20479;DHT22;10398;52.490;13.434;2023-01-29T14:18:13;4.80;99.90
20479;DHT22;10398;52.490;13.434;2023-01-29T14:20:50;4.60;99.90
20479;DHT22;10398;52.490;13.434;2023-01-29T14:23:39;4.60;99.90
20479;DHT22;10398;52.490;13.434;2023-01-29T14:28:59;4.60;99.90
20479;DHT22;10398;52.490;13.434;2023-01-29T14:31:58;4.60;99.90
20479;DHT22;10398;52.490;13.434;2023-01-29T14:34:30;4.60;99.90
20479;DHT22;10398;52.490;13.434;2023-01-29T14:37:21;4.60;99.90
20479;DHT22;10398;52.490;13.434;2023-01-29T14:39:58;4.60;99.90
20479;DHT22;10398;52.490;13.434;2023-01-29T14:45:39;4.40;99.90
20479;DHT22;10398;52.490;13.434;2023-01-29T14:53:23;4.40;99.90
20479;DHT22;10398;52.490;13.434;2023-01-29T14:55:51;4.30;99.90
20479;DHT22;10398;52.490;13.434;2023-01-29T14:58:35;4.30;99.90
20479;DHT22;10398;52.490;13.434;2023-01-29T15:01:05;4.30;99.90
20479;DHT22;10398;52.490;13.434;2023-01-29T15:03:36;4.20;99.90
20479;DHT22;10398;52.490;13.434;2023-01-29T15:06:05;4.30;99.90
20479;DHT22;10398;52.490;13.434;2023-01-29T15:08:42;4.30;99.90
20479;DHT22;10398;52.490;13.434;2023-01-29T15:11:32;4.20;99.90
20479;DHT22;10398;52.490;13.434;2023-01-29T15:19:36;4.10;99.90
20479;DHT22;10398;52.490;13.434;2023-01-29T15:22:07;4.00;99.90
20479;DHT22;10398;52.490;13.434;2023-01-29T15:24:33;4.00;99.90
20479;DHT22;10398;52.490;13.434;2023-01-29T15:27:00;4.00;99.90
20479;DHT22;10398;52.490;13.434;2023-01-29T15:29:29;4.10;99.90
20479;DHT22;10398;52.490;13.434;2023-01-29T15:31:55;4.10;99.90
20479;DHT22;10398;52.490;13.434;2023-01-29T15:34:21;4.00;99.90
20479;DHT22;10398;52.490;13.434;2023-01-29T15:36:48;4.10;99.90
20479;DHT22;10398;52.490;13.434;2023-01-29T15:39:22;4.00;99.90
20479;DHT22;10398;52.490;13.434;2023-01-29T15:41:49;4.00;99.90
20479;DHT22;10398;52.490;13.434;2023-01-29T15:44:20;4.10;99.90
20479;DHT22;10398;52.490;13.434;2023-01-29T15:46:53;4.00;99.90
20479;DHT22;10398;52.490;13.434;2023-01-29T15:49:28;4.00;99.90
20479;DHT22;10398;52.490;13.434;2023-01-29T15:51:59;4.00;99.90
20479;DHT22;10398;52.490;13.434;2023-01-29T15:54:29;4.00;99.90
20479;DHT22;10398;52.490;13.434;2023-01-29T15:56:57;3.90;99.90
20479;DHT22;10398;52.490;13.434;2023-01-29T15:59:25;4.00;99.90
20479;DHT22;10398;52.490;13.434;2023-01-29T16:01:52;3.90;99.90
20479;DHT22;10398;52.490;13.434;2023-01-29T16:04:29;3.80;99.90
20479;DHT22;10398;52.490;13.434;2023-01-29T16:06:57;3.80;99.90
20479;DHT22;10398;52.490;13.434;2023-01-29T16:09:25;3.80;99.90
20479;DHT22;10398;52.490;13.434;2023-01-29T16:11:53;3.80;99.90
20479;DHT22;10398;52.490;13.434;2023-01-29T16:14:23;3.70;99.90
20479;DHT22;10398;52.490;13.434;2023-01-29T16:16:50;3.70;99.90
20479;DHT22;10398;52.490;13.434;2023-01-29T16:19:25;3.70;99.90
20479;DHT22;10398;52.490;13.434;2023-01-29T16:22:05;3.70;99.90
20479;DHT22;10398;52.490;13.434;2023-01-29T16:24:35;3.70;99.90
20479;DHT22;10398;52.490;13.434;2023-01-29T16:27:07;3.70;99.90
20479;DHT22;10398;52.490;13.434;2023-01-29T16:29:35;3.70;99.90
20479;DHT22;10398;52.490;13.434;2023-01-29T16:32:01;3.80;99.90
20479;DHT22;10398;52.490;13.434;2023-01-29T16:36:58;3.80;99.90
20479;DHT22;10398;52.490;13.434;2023-01-29T16:39:42;3.80;99.90
20479;DHT22;10398;52.490;13.434;2023-01-29T16:44:37;3.80;99.90
20479;DHT22;10398;52.490;13.434;2023-01-29T16:47:19;3.80;99.90
20479;DHT22;10398;52.490;13.434;2023-01-29T16:49:50;3.70;99.90
20479;DHT22;10398;52.490;13.434;2023-01-29T16:54:50;3.80;99.90
20479;DHT22;10398;52.490;13.434;2023-01-29T16:57:20;3.80;99.90
20479;DHT22;10398;52.490;13.434;2023-01-29T16:59:47;3.70;99.90
20479;DHT22;10398;52.490;13.434;2023-01-29T17:02:36;3.80;99.90
20479;DHT22;10398;52.490;13.434;2023-01-29T17:05:09;3.80;99.90
20479;DHT22;10398;52.490;13.434;2023-01-29T17:07:43;3.70;99.90
20479;DHT22;10398;52.490;13.434;2023-01-29T17:10:16;3.70;99.90
20479;DHT22;10398;52.490;13.434;2023-01-29T17:12:59;3.70;99.90
20479;DHT22;10398;52.490;13.434;2023-01-29T17:15:32;3.70;99.90
20479;DHT22;10398;52.490;13.434;2023-01-29T17:17:58;3.70;99.90
20479;DHT22;10398;52.490;13.434;2023-01-29T17:20:24;4.00;99.90
20479;DHT22;10398;52.490;13.434;2023-01-29T17:22:49;4.30;99.90
20479;DHT22;10398;52.490;13.434;2023-01-29T17:25:15;4.20;99.90
20479;DHT22;10398;52.490;13.434;2023-01-29T17:27:44;4.20;99.90
20479;DHT22;10398;52.490;13.434;2023-01-29T17:30:21;4.10;99.90
20479;DHT22;10398;52.490;13.434;2023-01-29T17:32:48;4.10;99.90
20479;DHT22;10398;52.490;13.434;2023-01-29T17:35:14;4.00;99.90
20479;DHT22;10398;52.490;13.434;2023-01-29T17:37:40;3.90;99.90
20479;DHT22;10398;52.490;13.434;2023-01-29T17:42:40;3.80;99.90
20479;DHT22;10398;52.490;13.434;2023-01-29T17:45:06;3.80;99.90
20479;DHT22;10398;52.490;13.434;2023-01-29T17:47:32;3.80;99.90
20479;DHT22;10398;52.490;13.434;2023-01-29T17:49:58;3.70;99.90
20479;DHT22;10398;52.490;13.434;2023-01-29T17:52:24;3.70;99.90
20479;DHT22;10398;52.490;13.434;2023-01-29T17:54:50;3.70;99.90
20479;DHT22;10398;52.490;13.434;2023-01-29T17:57:15;3.70;99.90
20479;DHT22;10398;52.490;13.434;2023-01-29T17:59:41;3.60;99.90
20479;DHT22;10398;52.490;13.434;2023-01-29T18:02:09;3.60;99.90
20479;DHT22;10398;52.490;13.434;2023-01-29T18:04:35;3.60;99.90
20479;DHT22;10398;52.490;13.434;2023-01-29T18:07:00;3.50;99.90
20479;DHT22;10398;52.490;13.434;2023-01-29T18:09:28;3.60;99.90
20479;DHT22;10398;52.490;13.434;2023-01-29T18:11:55;3.70;99.90